Time,TemperatureF,DewpointF,PressureIn,WindDirection,WindDirectionDegrees,WindSpeedMPH,WindSpeedGustMPH,Humidity,HourlyPrecipIn,Conditions,Clouds,dailyrainin,SoftwareType,DateUTC
2013-04-13 00:03:00,27.9,23.7,29.82,NNW,341,2.2,3.6,84,0.00,,---,0.00,VWS V14.00,2013-04-13 05:03:00,
2013-04-13 00:08:00,27.9,23.7,29.82,NNW,341,2.7,3.6,84,0.00,,---,0.00,VWS V14.00,2013-04-13 05:08:00,
2013-04-13 00:13:00,27.9,23.7,29.82,NNW,341,2.7,3.6,84,0.00,,---,0.00,VWS V14.00,2013-04-13 05:13:00,
2013-04-13 00:18:00,27.9,23.7,29.82,NNW,341,2.7,3.1,84,0.00,,---,0.00,VWS V14.00,2013-04-13 05:18:00,
2013-04-13 00:23:00,27.9,23.7,29.82,NNW,341,2.7,3.1,84,0.00,,---,0.00,VWS V14.00,2013-04-13 05:23:00,
2013-04-13 00:28:00,27.9,24.0,29.82,NNW,341,3.1,3.1,85,0.00,,---,0.00,VWS V14.00,2013-04-13 05:28:00,
2013-04-13 00:33:00,27.9,24.0,29.82,NNW,341,2.7,3.1,85,0.00,,---,0.00,VWS V14.00,2013-04-13 05:33:00,
2013-04-13 00:38:00,27.7,23.8,29.82,NW,312,3.1,4.5,85,0.00,,---,0.00,VWS V14.00,2013-04-13 05:38:00,
2013-04-13 00:43:00,27.9,24.2,29.85,NW,313,0.0,2.7,86,0.00,,---,0.00,VWS V14.00,2013-04-13 05:43:00,
2013-04-13 00:48:00,27.9,24.2,29.85,NNW,327,4.0,4.5,86,0.00,,---,0.00,VWS V14.00,2013-04-13 05:48:00,
2013-04-13 00:53:00,27.9,24.2,29.85,NNW,335,3.1,3.6,86,0.00,,---,0.00,VWS V14.00,2013-04-13 05:53:00,
2013-04-13 00:58:00,27.9,24.2,29.85,NNW,335,3.6,3.6,86,0.00,,---,0.00,VWS V14.00,2013-04-13 05:58:00,
2013-04-13 01:03:00,27.9,24.2,29.85,NNW,335,3.1,3.1,86,0.00,,---,0.00,VWS V14.00,2013-04-13 06:03:00,
2013-04-13 01:08:00,27.7,24.0,29.85,NNW,335,0.0,2.2,86,0.00,,---,0.00,VWS V14.00,2013-04-13 06:08:00,
2013-04-13 01:13:00,27.9,24.2,29.85,NNW,335,0.0,0.0,86,0.00,,---,0.00,VWS V14.00,2013-04-13 06:13:00,
2013-04-13 01:18:00,27.9,24.2,29.85,NNW,335,0.0,0.0,86,0.00,,---,0.00,VWS V14.00,2013-04-13 06:18:00,
2013-04-13 01:23:00,27.9,24.2,29.85,NNW,335,0.0,0.0,86,0.00,,---,0.00,VWS V14.00,2013-04-13 06:23:00,
2013-04-13 01:29:00,27.9,24.2,29.85,NNW,335,2.7,3.6,86,0.00,,---,0.00,VWS V14.00,2013-04-13 06:29:00,
2013-04-13 01:34:00,27.7,24.0,29.85,NNW,335,0.0,2.7,86,0.00,,---,0.00,VWS V14.00,2013-04-13 06:34:00,
2013-04-13 01:39:00,27.7,24.0,29.85,NNW,335,2.2,2.2,86,0.00,,---,0.00,VWS V14.00,2013-04-13 06:39:00,
2013-04-13 01:44:00,27.5,23.9,29.85,NNW,335,2.2,2.7,86,0.00,,---,0.00,VWS V14.00,2013-04-13 06:44:00,
2013-04-13 01:49:00,27.5,23.9,29.85,NNW,335,2.2,2.7,86,0.00,,---,0.00,VWS V14.00,2013-04-13 06:49:00,
2013-04-13 01:54:00,27.3,23.7,29.85,NNW,335,0.0,2.2,86,0.00,,---,0.00,VWS V14.00,2013-04-13 06:54:00,
2013-04-13 01:59:00,27.3,23.7,29.85,NNW,335,0.0,2.2,86,0.00,,---,0.00,VWS V14.00,2013-04-13 06:59:00,
2013-04-13 02:04:00,27.3,23.7,29.85,NNW,335,0.0,0.0,86,0.00,,---,0.00,VWS V14.00,2013-04-13 07:04:00,
2013-04-13 02:09:00,27.5,23.9,29.85,NNW,335,0.0,0.0,86,0.00,,---,0.00,VWS V14.00,2013-04-13 07:09:00,
2013-04-13 02:14:00,27.3,23.7,29.85,NNW,335,0.0,0.0,86,0.00,,---,0.00,VWS V14.00,2013-04-13 07:14:00,
2013-04-13 02:19:00,27.3,23.7,29.85,NNW,335,0.0,0.0,86,0.00,,---,0.00,VWS V14.00,2013-04-13 07:19:00,
2013-04-13 02:25:00,27.3,23.7,29.85,NNW,335,0.0,0.0,86,0.00,,---,0.00,VWS V14.00,2013-04-13 07:25:00,
2013-04-13 02:30:00,27.3,23.7,29.82,NNW,335,0.0,0.0,86,0.00,,---,0.00,VWS V14.00,2013-04-13 07:30:00,
2013-04-13 02:35:00,27.1,23.5,29.82,NNW,335,0.0,0.0,86,0.00,,---,0.00,VWS V14.00,2013-04-13 07:35:00,
2013-04-13 02:40:00,27.1,23.5,29.82,NNW,335,0.0,0.0,86,0.00,,---,0.00,VWS V14.00,2013-04-13 07:40:00,
2013-04-13 02:45:00,27.0,23.3,29.82,NNW,335,0.0,0.0,86,0.00,,---,0.00,VWS V14.00,2013-04-13 07:45:00,
2013-04-13 02:50:00,27.0,23.3,29.82,NNW,335,0.0,0.0,86,0.00,,---,0.00,VWS V14.00,2013-04-13 07:50:00,
2013-04-13 02:55:00,26.8,23.2,29.82,NNW,335,0.0,0.0,86,0.00,,---,0.00,VWS V14.00,2013-04-13 07:55:00,
2013-04-13 03:00:00,26.8,23.2,29.82,NNW,335,0.0,0.0,86,0.00,,---,0.00,VWS V14.00,2013-04-13 08:00:00,
2013-04-13 03:05:00,26.8,23.2,29.82,NNW,335,0.0,0.0,86,0.00,,---,0.00,VWS V14.00,2013-04-13 08:05:00,
2013-04-13 03:10:00,26.8,23.2,29.82,NNW,335,0.0,0.0,86,0.00,,---,0.00,VWS V14.00,2013-04-13 08:10:00,
2013-04-13 03:15:00,26.8,23.2,29.82,NNW,335,0.0,0.0,86,0.00,,---,0.00,VWS V14.00,2013-04-13 08:15:00,
2013-04-13 03:20:00,26.8,23.2,29.82,NNW,335,0.0,0.0,86,0.00,,---,0.00,VWS V14.00,2013-04-13 08:20:00,
2013-04-13 03:25:00,26.6,23.0,29.82,NNW,335,0.0,0.0,86,0.00,,---,0.00,VWS V14.00,2013-04-13 08:25:00,
2013-04-13 03:30:00,26.4,22.8,29.82,NNW,335,0.0,0.0,86,0.00,,---,0.00,VWS V14.00,2013-04-13 08:30:00,
2013-04-13 03:35:00,26.4,22.8,29.82,NNW,335,0.0,0.0,86,0.00,,---,0.00,VWS V14.00,2013-04-13 08:35:00,
2013-04-13 03:40:00,26.4,22.8,29.82,NNW,335,0.0,0.0,86,0.00,,---,0.00,VWS V14.00,2013-04-13 08:40:00,
2013-04-13 03:45:00,26.4,22.8,29.82,NNW,335,0.0,0.0,86,0.00,,---,0.00,VWS V14.00,2013-04-13 08:45:00,
2013-04-13 03:50:00,26.4,22.8,29.82,NNW,335,0.0,0.0,86,0.00,,---,0.00,VWS V14.00,2013-04-13 08:50:00,
2013-04-13 03:55:00,26.4,22.8,29.82,NNW,335,0.0,0.0,86,0.00,,---,0.00,VWS V14.00,2013-04-13 08:55:00,
2013-04-13 04:00:00,26.6,23.0,29.82,NNW,335,0.0,0.0,86,0.00,,---,0.00,VWS V14.00,2013-04-13 09:00:00,
2013-04-13 04:05:00,26.8,23.2,29.82,NNW,335,0.0,0.0,86,0.00,,---,0.00,VWS V14.00,2013-04-13 09:05:00,
2013-04-13 04:10:00,27.0,23.3,29.82,NNW,335,0.0,0.0,86,0.00,,---,0.00,VWS V14.00,2013-04-13 09:10:00,
2013-04-13 04:15:00,27.0,23.3,29.82,NNW,335,0.0,0.0,86,0.00,,---,0.00,VWS V14.00,2013-04-13 09:15:00,
2013-04-13 04:20:00,27.0,23.3,29.82,NNW,335,0.0,0.0,86,0.00,,---,0.00,VWS V14.00,2013-04-13 09:20:00,
2013-04-13 04:27:00,27.1,23.5,29.82,NNW,335,0.0,0.0,86,0.00,,---,0.00,VWS V14.00,2013-04-13 09:27:00,
2013-04-13 04:32:00,27.1,23.8,29.82,NNW,335,0.0,2.2,87,0.00,,---,0.00,VWS V14.00,2013-04-13 09:32:00,
2013-04-13 04:37:00,27.1,23.8,29.82,NNW,335,0.0,0.0,87,0.00,,---,0.00,VWS V14.00,2013-04-13 09:37:00,
2013-04-13 04:42:00,27.1,23.8,29.82,NNW,335,0.0,0.0,87,0.00,,---,0.00,VWS V14.00,2013-04-13 09:42:00,
2013-04-13 04:47:00,27.3,24.0,29.82,NNW,335,0.0,0.0,87,0.00,,---,0.00,VWS V14.00,2013-04-13 09:47:00,
2013-04-13 04:53:00,27.3,24.0,29.82,NNW,335,0.0,0.0,87,0.00,,---,0.00,VWS V14.00,2013-04-13 09:53:00,
2013-04-13 04:58:00,27.3,24.0,29.82,NNW,335,0.0,0.0,87,0.00,,---,0.00,VWS V14.00,2013-04-13 09:58:00,
2013-04-13 05:03:00,27.3,24.0,29.82,NNW,335,0.0,0.0,87,0.00,,---,0.00,VWS V14.00,2013-04-13 10:03:00,
2013-04-13 05:08:00,27.3,24.0,29.82,NNW,335,0.0,0.0,87,0.00,,---,0.00,VWS V14.00,2013-04-13 10:08:00,
2013-04-13 05:13:00,27.3,24.0,29.82,NNW,335,0.0,0.0,87,0.00,,---,0.00,VWS V14.00,2013-04-13 10:13:00,
2013-04-13 05:18:00,27.3,24.0,29.82,NNW,335,0.0,0.0,87,0.00,,---,0.00,VWS V14.00,2013-04-13 10:18:00,
2013-04-13 05:23:00,27.5,24.1,29.82,NNW,335,0.0,0.0,87,0.00,,---,0.00,VWS V14.00,2013-04-13 10:23:00,
2013-04-13 05:29:00,27.7,24.3,29.82,NNW,335,0.0,0.0,87,0.00,,---,0.00,VWS V14.00,2013-04-13 10:29:00,
2013-04-13 05:34:00,27.7,24.3,29.82,NNW,335,0.0,0.0,87,0.00,,---,0.00,VWS V14.00,2013-04-13 10:34:00,
2013-04-13 05:39:00,27.9,24.5,29.82,NNW,335,0.0,0.0,87,0.00,,---,0.00,VWS V14.00,2013-04-13 10:39:00,
2013-04-13 05:44:00,27.7,24.3,29.82,NNW,335,0.0,2.2,87,0.00,,---,0.00,VWS V14.00,2013-04-13 10:44:00,
2013-04-13 05:49:00,27.3,24.0,29.82,NW,316,2.2,2.7,87,0.00,,---,0.00,VWS V14.00,2013-04-13 10:49:00,
2013-04-13 05:54:00,27.5,24.1,29.82,NW,308,0.0,0.0,87,0.00,,---,0.00,VWS V14.00,2013-04-13 10:54:00,
2013-04-13 06:00:00,27.9,24.5,29.82,West,267,2.2,3.1,87,0.00,,---,0.00,VWS V14.00,2013-04-13 11:00:00,
2013-04-13 06:05:00,28.0,25.0,29.82,West,270,2.7,2.7,88,0.00,,---,0.00,VWS V14.00,2013-04-13 11:05:00,
2013-04-13 06:10:00,28.4,25.3,29.82,West,270,3.1,3.1,88,0.00,,---,0.00,VWS V14.00,2013-04-13 11:10:00,
2013-04-13 06:15:00,28.4,25.3,29.82,WSW,253,3.1,3.6,88,0.00,,---,0.00,VWS V14.00,2013-04-13 11:15:00,
2013-04-13 06:21:00,28.6,25.5,29.82,WSW,247,3.6,3.6,88,0.00,,---,0.00,VWS V14.00,2013-04-13 11:21:00,
2013-04-13 06:26:00,28.6,25.5,29.82,WSW,254,2.7,3.6,88,0.00,,---,0.00,VWS V14.00,2013-04-13 11:26:00,
2013-04-13 06:31:00,28.4,25.3,29.82,West,259,3.1,5.4,88,0.00,,---,0.00,VWS V14.00,2013-04-13 11:31:00,
2013-04-13 06:36:00,28.0,25.0,29.82,West,262,2.7,3.6,88,0.00,,---,0.00,VWS V14.00,2013-04-13 11:36:00,
2013-04-13 06:41:00,27.9,24.8,29.82,WSW,258,2.7,4.0,88,0.00,,---,0.00,VWS V14.00,2013-04-13 11:41:00,
2013-04-13 06:46:00,28.0,25.0,29.82,WNW,302,3.1,5.8,88,0.00,,---,0.00,VWS V14.00,2013-04-13 11:46:00,
2013-04-13 06:51:00,28.4,25.6,29.82,WNW,288,4.9,6.3,89,0.00,,---,0.00,VWS V14.00,2013-04-13 11:51:00,
2013-04-13 06:56:00,28.6,25.8,29.82,West,264,6.3,6.3,89,0.00,,---,0.00,VWS V14.00,2013-04-13 11:56:00,
2013-04-13 07:02:00,28.6,25.8,29.82,West,269,5.8,5.8,89,0.00,,---,0.00,VWS V14.00,2013-04-13 12:02:00,
2013-04-13 07:07:00,28.4,25.9,29.82,NW,311,4.0,6.3,90,0.00,,---,0.00,VWS V14.00,2013-04-13 12:07:00,
2013-04-13 07:12:00,28.4,25.6,29.85,WNW,298,5.4,8.1,89,0.00,,---,0.00,VWS V14.00,2013-04-13 12:12:00,
2013-04-13 07:17:00,28.6,25.5,29.85,NW,324,4.0,5.8,88,0.00,,---,0.00,VWS V14.00,2013-04-13 12:17:00,
2013-04-13 07:22:00,28.8,25.7,29.85,NW,311,4.9,5.8,88,0.00,,---,0.00,VWS V14.00,2013-04-13 12:22:00,
2013-04-13 07:27:00,29.1,25.7,29.85,WNW,299,3.6,6.3,87,0.00,,---,0.00,VWS V14.00,2013-04-13 12:27:00,
2013-04-13 07:32:00,29.3,25.9,29.85,NW,321,5.8,7.6,87,0.00,,---,0.00,VWS V14.00,2013-04-13 12:32:00,
2013-04-13 07:37:00,29.5,25.8,29.85,NW,318,6.3,6.3,86,0.00,,---,0.00,VWS V14.00,2013-04-13 12:37:00,
2013-04-13 07:42:00,29.7,25.7,29.85,WNW,300,8.1,11.0,85,0.00,,---,0.00,VWS V14.00,2013-04-13 12:42:00,
2013-04-13 07:47:00,29.7,25.1,29.85,NW,311,7.6,8.7,83,0.00,,---,0.00,VWS V14.00,2013-04-13 12:47:00,
2013-04-13 07:52:00,30.0,24.6,29.85,NW,306,5.4,8.7,80,0.00,,---,0.00,VWS V14.00,2013-04-13 12:52:00,
2013-04-13 07:57:00,30.6,24.5,29.85,WNW,293,6.3,8.1,78,0.00,,---,0.00,VWS V14.00,2013-04-13 12:57:00,
2013-04-13 08:02:00,31.1,24.8,29.85,NW,311,6.3,8.3,77,0.00,,---,0.00,VWS V14.00,2013-04-13 13:02:00,
2013-04-13 08:08:00,31.3,24.0,29.85,NNW,327,6.7,8.1,74,0.00,,---,0.00,VWS V14.00,2013-04-13 13:08:00,
2013-04-13 08:13:00,31.3,23.3,29.85,NW,321,6.3,7.6,72,0.00,,---,0.00,VWS V14.00,2013-04-13 13:13:00,
2013-04-13 08:19:00,31.5,23.2,29.85,NW,318,5.4,5.4,71,0.00,,---,0.00,VWS V14.00,2013-04-13 13:19:00,
2013-04-13 08:24:00,32.5,23.9,29.85,WNW,303,4.9,8.3,70,0.00,,---,0.00,VWS V14.00,2013-04-13 13:24:00,
2013-04-13 08:29:00,32.7,23.0,29.85,NW,306,5.4,7.6,67,0.00,,---,0.00,VWS V14.00,2013-04-13 13:29:00,
2013-04-13 08:34:00,32.5,22.1,29.85,NW,322,5.4,6.3,65,0.00,,---,0.00,VWS V14.00,2013-04-13 13:34:00,
2013-04-13 08:40:00,32.5,22.1,29.85,WNW,299,4.0,6.3,65,0.00,,---,0.00,VWS V14.00,2013-04-13 13:40:00,
2013-04-13 08:45:00,32.4,21.6,29.85,West,267,4.0,4.9,64,0.00,,---,0.00,VWS V14.00,2013-04-13 13:45:00,
2013-04-13 08:50:00,32.4,21.9,29.85,WNW,294,2.7,7.2,65,0.00,,---,0.00,VWS V14.00,2013-04-13 13:50:00,
2013-04-13 08:55:00,32.7,21.9,29.85,WNW,286,5.4,5.8,64,0.00,,---,0.00,VWS V14.00,2013-04-13 13:55:00,
2013-04-13 09:00:00,33.4,22.2,29.85,WNW,296,8.7,8.7,63,0.00,,---,0.00,VWS V14.00,2013-04-13 14:00:00,
2013-04-13 09:05:00,34.3,21.9,29.85,WNW,292,4.0,8.7,60,0.00,,---,0.00,VWS V14.00,2013-04-13 14:05:00,
2013-04-13 09:10:00,34.5,20.9,29.85,NW,324,6.3,10.5,57,0.00,,---,0.00,VWS V14.00,2013-04-13 14:10:00,
2013-04-13 09:15:00,34.3,20.3,29.85,NW,319,8.1,8.1,56,0.00,,---,0.00,VWS V14.00,2013-04-13 14:15:00,
2013-04-13 09:21:00,34.5,20.5,29.85,NNW,339,8.1,10.1,56,0.00,,---,0.00,VWS V14.00,2013-04-13 14:21:00,
2013-04-13 09:26:00,35.1,20.5,29.85,WNW,302,7.6,8.3,55,0.00,,---,0.00,VWS V14.00,2013-04-13 14:26:00,
2013-04-13 09:31:00,36.1,20.2,29.85,NW,323,7.6,8.1,52,0.00,,---,0.00,VWS V14.00,2013-04-13 14:31:00,
2013-04-13 09:36:00,36.9,20.4,29.85,WNW,302,6.3,6.7,51,0.00,,---,0.00,VWS V14.00,2013-04-13 14:36:00,
2013-04-13 09:42:00,37.6,20.2,29.85,NW,310,8.3,8.3,49,0.00,,---,0.00,VWS V14.00,2013-04-13 14:42:00,
2013-04-13 09:47:00,37.8,19.9,29.85,NW,312,4.0,5.8,48,0.00,,---,0.00,VWS V14.00,2013-04-13 14:47:00,
2013-04-13 09:52:00,38.7,20.7,29.85,WNW,301,8.1,8.1,48,0.00,,---,0.00,VWS V14.00,2013-04-13 14:52:00,
2013-04-13 09:57:00,38.8,19.8,29.85,NNW,328,8.1,8.1,46,0.00,,---,0.00,VWS V14.00,2013-04-13 14:57:00,
2013-04-13 10:03:00,39.7,19.6,29.85,NW,320,8.3,10.1,44,0.00,,---,0.00,VWS V14.00,2013-04-13 15:03:00,
2013-04-13 10:08:00,39.7,19.1,29.85,NW,318,5.8,8.1,43,0.00,,---,0.00,VWS V14.00,2013-04-13 15:08:00,
2013-04-13 10:13:00,40.3,19.6,29.85,WNW,285,4.0,11.0,43,0.00,,---,0.00,VWS V14.00,2013-04-13 15:13:00,
2013-04-13 10:18:00,41.0,19.1,29.85,NNW,334,5.8,8.1,41,0.00,,---,0.00,VWS V14.00,2013-04-13 15:18:00,
2013-04-13 10:23:00,41.4,19.5,29.85,NNW,335,7.6,8.3,41,0.00,,---,0.00,VWS V14.00,2013-04-13 15:23:00,
2013-04-13 10:28:00,40.5,19.2,29.85,NW,305,5.4,7.6,42,0.00,,---,0.00,VWS V14.00,2013-04-13 15:28:00,
2013-04-13 10:34:00,42.1,20.1,29.85,NNW,334,6.7,8.7,41,0.00,,---,0.00,VWS V14.00,2013-04-13 15:34:00,
2013-04-13 10:39:00,40.8,19.5,29.85,NNW,333,7.6,7.6,42,0.00,,---,0.00,VWS V14.00,2013-04-13 15:39:00,
2013-04-13 10:44:00,39.9,18.7,29.85,NNW,346,6.3,8.3,42,0.00,,---,0.00,VWS V14.00,2013-04-13 15:44:00,
2013-04-13 10:49:00,39.9,18.7,29.85,WNW,293,5.4,6.3,42,0.00,,---,0.00,VWS V14.00,2013-04-13 15:49:00,
2013-04-13 10:54:00,40.8,19.5,29.85,WNW,301,5.8,8.1,42,0.00,,---,0.00,VWS V14.00,2013-04-13 15:54:00,
2013-04-13 10:59:00,40.5,19.2,29.85,NW,325,6.3,6.3,42,0.00,,---,0.00,VWS V14.00,2013-04-13 15:59:00,
2013-04-13 11:04:00,40.3,19.0,29.85,WNW,302,5.8,8.1,42,0.00,,---,0.00,VWS V14.00,2013-04-13 16:04:00,
2013-04-13 11:09:00,40.3,19.0,29.85,NW,311,5.8,5.8,42,0.00,,---,0.00,VWS V14.00,2013-04-13 16:09:00,
2013-04-13 11:14:00,40.3,19.0,29.88,WNW,283,4.5,6.7,42,0.00,,---,0.00,VWS V14.00,2013-04-13 16:14:00,
2013-04-13 11:19:00,39.9,18.7,29.88,WSW,258,5.4,6.3,42,0.00,,---,0.00,VWS V14.00,2013-04-13 16:19:00,
2013-04-13 11:24:00,38.7,18.1,29.88,West,279,4.0,8.1,43,0.00,,---,0.00,VWS V14.00,2013-04-13 16:24:00,
2013-04-13 11:29:00,37.8,18.3,29.88,NW,315,5.4,8.1,45,0.00,,---,0.00,VWS V14.00,2013-04-13 16:29:00,
2013-04-13 11:35:00,39.2,20.2,29.88,NNW,333,7.2,8.7,46,0.00,,---,0.00,VWS V14.00,2013-04-13 16:35:00,
2013-04-13 11:40:00,40.3,20.1,29.88,NW,312,3.6,8.1,44,0.00,,---,0.00,VWS V14.00,2013-04-13 16:40:00,
2013-04-13 11:45:00,41.4,20.0,29.88,NNW,342,5.4,6.3,42,0.00,,---,0.00,VWS V14.00,2013-04-13 16:45:00,
2013-04-13 11:50:00,39.9,18.7,29.88,WNW,290,7.6,7.6,42,0.00,,---,0.00,VWS V14.00,2013-04-13 16:50:00,
2013-04-13 11:55:00,37.8,17.8,29.88,NW,314,5.8,6.3,44,0.00,,---,0.00,VWS V14.00,2013-04-13 16:55:00,
2013-04-13 12:00:00,37.0,19.2,29.88,WNW,292,3.1,5.4,48,0.00,,---,0.00,VWS V14.00,2013-04-13 17:00:00,
2013-04-13 12:05:00,37.8,20.3,29.88,NW,306,2.7,5.8,49,0.00,,---,0.00,VWS V14.00,2013-04-13 17:05:00,
2013-04-13 12:11:00,39.0,21.0,29.88,WNW,298,4.9,8.3,48,0.00,,---,0.00,VWS V14.00,2013-04-13 17:11:00,
2013-04-13 12:15:00,39.4,19.3,29.88,NW,305,5.8,5.8,44,0.00,,---,0.00,VWS V14.00,2013-04-13 17:15:00,
2013-04-13 12:21:00,37.9,19.0,29.88,NW,305,7.6,7.6,46,0.00,,---,0.00,VWS V14.00,2013-04-13 17:21:00,
2013-04-13 12:26:00,37.6,19.7,29.88,WSW,255,0.0,5.8,48,0.00,,---,0.00,VWS V14.00,2013-04-13 17:26:00,
2013-04-13 12:31:00,39.0,21.5,29.88,WSW,251,3.6,5.4,49,0.00,,---,0.00,VWS V14.00,2013-04-13 17:31:00,
2013-04-13 12:36:00,40.5,20.8,29.88,West,273,4.0,6.3,45,0.00,,---,0.00,VWS V14.00,2013-04-13 17:36:00,
2013-04-13 12:41:00,41.2,19.9,29.88,NW,307,5.4,5.8,42,0.00,,---,0.00,VWS V14.00,2013-04-13 17:41:00,
2013-04-13 12:47:00,41.4,19.5,29.88,NW,318,8.1,10.5,41,0.00,,---,0.00,VWS V14.00,2013-04-13 17:47:00,
2013-04-13 12:52:00,40.3,18.5,29.88,WNW,297,5.8,7.6,41,0.00,,---,0.00,VWS V14.00,2013-04-13 17:52:00,
2013-04-13 12:58:00,39.2,17.5,29.88,West,273,7.6,8.7,41,0.00,,---,0.00,VWS V14.00,2013-04-13 17:58:00,
2013-04-13 13:03:00,37.8,16.8,29.88,WNW,296,8.7,8.7,42,0.00,,---,0.00,VWS V14.00,2013-04-13 18:03:00,
2013-04-13 13:08:00,36.7,17.4,29.88,West,271,4.9,8.1,45,0.00,,---,0.00,VWS V14.00,2013-04-13 18:08:00,
2013-04-13 13:13:00,36.3,19.0,29.88,West,268,3.6,4.0,49,0.00,,---,0.00,VWS V14.00,2013-04-13 18:13:00,
2013-04-13 13:18:00,37.4,20.0,29.88,WNW,291,4.0,8.3,49,0.00,,---,0.00,VWS V14.00,2013-04-13 18:18:00,
2013-04-13 13:23:00,39.2,20.2,29.88,West,267,6.3,6.3,46,0.00,,---,0.00,VWS V14.00,2013-04-13 18:23:00,
2013-04-13 13:27:00,40.1,20.0,29.88,West,273,5.4,6.3,44,0.00,,---,0.00,VWS V14.00,2013-04-13 18:27:00,
2013-04-13 13:32:00,42.1,20.7,29.88,WNW,284,4.0,7.2,42,0.00,,---,0.00,VWS V14.00,2013-04-13 18:32:00,
2013-04-13 13:38:00,42.3,20.3,29.88,NW,309,6.3,8.1,41,0.00,,---,0.00,VWS V14.00,2013-04-13 18:38:00,
2013-04-13 13:43:00,41.9,19.9,29.88,NW,312,5.4,6.3,41,0.00,,---,0.00,VWS V14.00,2013-04-13 18:43:00,
2013-04-13 13:48:00,42.8,20.8,29.88,NW,323,8.1,8.1,41,0.00,,---,0.00,VWS V14.00,2013-04-13 18:48:00,
2013-04-13 13:53:00,45.0,21.5,29.88,NNW,339,4.0,7.6,39,0.00,,---,0.00,VWS V14.00,2013-04-13 18:53:00,
2013-04-13 13:58:00,45.5,21.4,29.88,NW,310,8.1,8.3,38,0.00,,---,0.00,VWS V14.00,2013-04-13 18:58:00,
2013-04-13 14:03:00,42.8,19.0,29.88,NW,307,8.1,8.3,38,0.00,,---,0.00,VWS V14.00,2013-04-13 19:03:00,
2013-04-13 14:08:00,41.4,18.3,29.88,NW,325,8.3,8.3,39,0.00,,---,0.00,VWS V14.00,2013-04-13 19:08:00,
2013-04-13 14:13:00,41.5,19.0,29.88,NW,319,6.3,7.6,40,0.00,,---,0.00,VWS V14.00,2013-04-13 19:13:00,
2013-04-13 14:18:00,41.7,19.2,29.88,NNW,335,3.1,4.0,40,0.00,,---,0.00,VWS V14.00,2013-04-13 19:18:00,
2013-04-13 14:23:00,41.7,19.2,29.88,WSW,258,5.4,5.8,40,0.00,,---,0.00,VWS V14.00,2013-04-13 19:23:00,
2013-04-13 14:28:00,41.5,19.0,29.88,WSW,248,4.9,8.1,40,0.00,,---,0.00,VWS V14.00,2013-04-13 19:28:00,
2013-04-13 14:33:00,40.8,18.4,29.88,West,267,4.0,5.4,40,0.00,,---,0.00,VWS V14.00,2013-04-13 19:33:00,
2013-04-13 14:38:00,39.4,17.7,29.88,WNW,296,4.0,5.4,41,0.00,,---,0.00,VWS V14.00,2013-04-13 19:38:00,
2013-04-13 14:43:00,38.7,18.1,29.88,WNW,285,4.0,4.0,43,0.00,,---,0.00,VWS V14.00,2013-04-13 19:43:00,
2013-04-13 14:48:00,38.8,18.8,29.88,West,279,3.1,4.0,44,0.00,,---,0.00,VWS V14.00,2013-04-13 19:48:00,
2013-04-13 14:53:00,39.6,18.9,29.88,NW,304,5.4,5.8,43,0.00,,---,0.00,VWS V14.00,2013-04-13 19:53:00,
2013-04-13 14:58:00,40.5,19.7,29.88,NNW,327,3.6,4.9,43,0.00,,---,0.00,VWS V14.00,2013-04-13 19:58:00,
2013-04-13 15:03:00,42.8,20.8,29.88,North,353,3.1,3.6,41,0.00,,---,0.00,VWS V14.00,2013-04-13 20:03:00,
2013-04-13 15:08:00,44.1,20.7,29.88,NW,312,3.1,5.8,39,0.00,,---,0.00,VWS V14.00,2013-04-13 20:08:00,
2013-04-13 15:13:00,43.5,19.6,29.88,WSW,251,2.7,3.1,38,0.00,,---,0.00,VWS V14.00,2013-04-13 20:13:00,
2013-04-13 15:18:00,42.3,19.1,29.88,NW,325,5.8,8.3,39,0.00,,---,0.00,VWS V14.00,2013-04-13 20:18:00,
2013-04-13 15:23:00,40.3,17.3,29.88,WNW,300,6.3,6.7,39,0.00,,---,0.00,VWS V14.00,2013-04-13 20:23:00,
2013-04-13 15:28:00,39.9,17.6,29.88,WNW,299,4.0,4.9,40,0.00,,---,0.00,VWS V14.00,2013-04-13 20:28:00,
2013-04-13 15:34:00,39.6,17.2,29.88,NW,310,8.7,8.7,40,0.00,,---,0.00,VWS V14.00,2013-04-13 20:34:00,
2013-04-13 15:39:00,38.8,17.2,29.88,WSW,242,5.4,6.3,41,0.00,,---,0.00,VWS V14.00,2013-04-13 20:39:00,
2013-04-13 15:44:00,37.9,16.9,29.88,WNW,300,5.4,9.6,42,0.00,,---,0.00,VWS V14.00,2013-04-13 20:44:00,
2013-04-13 15:49:00,37.2,16.8,29.88,NW,316,4.9,5.8,43,0.00,,---,0.00,VWS V14.00,2013-04-13 20:49:00,
2013-04-13 15:54:00,37.2,17.3,29.88,West,273,8.1,8.3,44,0.00,,---,0.00,VWS V14.00,2013-04-13 20:54:00,
2013-04-13 15:59:00,37.4,17.5,29.88,NW,311,7.6,8.1,44,0.00,,---,0.00,VWS V14.00,2013-04-13 20:59:00,
2013-04-13 16:04:00,38.1,18.1,29.88,WNW,303,9.6,10.1,44,0.00,,---,0.00,VWS V14.00,2013-04-13 21:04:00,
2013-04-13 16:09:00,38.8,18.3,29.88,WNW,300,4.0,6.3,43,0.00,,---,0.00,VWS V14.00,2013-04-13 21:09:00,
2013-04-13 16:14:00,39.4,18.8,29.88,WNW,287,4.5,5.8,43,0.00,,---,0.00,VWS V14.00,2013-04-13 21:14:00,
2013-04-13 16:19:00,39.9,18.7,29.88,West,276,5.4,6.3,42,0.00,,---,0.00,VWS V14.00,2013-04-13 21:19:00,
2013-04-13 16:24:00,40.5,19.2,29.88,West,259,3.1,5.4,42,0.00,,---,0.00,VWS V14.00,2013-04-13 21:24:00,
2013-04-13 16:29:00,41.0,19.1,29.88,WSW,257,3.6,6.3,41,0.00,,---,0.00,VWS V14.00,2013-04-13 21:29:00,
2013-04-13 16:34:00,40.3,18.5,29.88,WSW,251,4.0,5.4,41,0.00,,---,0.00,VWS V14.00,2013-04-13 21:34:00,
2013-04-13 16:39:00,39.2,17.5,29.88,NW,325,4.9,5.4,41,0.00,,---,0.00,VWS V14.00,2013-04-13 21:39:00,
2013-04-13 16:44:00,38.3,16.7,29.88,NW,314,3.6,5.4,41,0.00,,---,0.00,VWS V14.00,2013-04-13 21:44:00,
2013-04-13 16:49:00,37.6,16.6,29.88,WNW,293,3.6,4.0,42,0.00,,---,0.00,VWS V14.00,2013-04-13 21:49:00,
2013-04-13 16:54:00,37.2,16.3,29.88,WNW,301,3.1,4.0,42,0.00,,---,0.00,VWS V14.00,2013-04-13 21:54:00,
2013-04-13 16:59:00,37.2,16.8,29.88,WSW,244,5.4,5.4,43,0.00,,---,0.00,VWS V14.00,2013-04-13 21:59:00,
2013-04-13 17:04:00,37.4,17.0,29.88,WSW,257,2.7,3.6,43,0.00,,---,0.00,VWS V14.00,2013-04-13 22:04:00,
2013-04-13 17:09:00,37.8,17.3,29.88,WSW,257,3.1,3.1,43,0.00,,---,0.00,VWS V14.00,2013-04-13 22:09:00,
2013-04-13 17:14:00,37.9,16.9,29.88,WNW,282,3.1,4.0,42,0.00,,---,0.00,VWS V14.00,2013-04-13 22:14:00,
2013-04-13 17:19:00,37.8,16.8,29.88,West,274,2.7,3.6,42,0.00,,---,0.00,VWS V14.00,2013-04-13 22:19:00,
2013-04-13 17:24:00,37.6,16.6,29.88,West,278,2.7,2.7,42,0.00,,---,0.00,VWS V14.00,2013-04-13 22:24:00,
2013-04-13 17:29:00,37.4,16.4,29.88,NW,308,2.2,3.6,42,0.00,,---,0.00,VWS V14.00,2013-04-13 22:29:00,
2013-04-13 17:34:00,37.2,16.3,29.88,NW,320,2.7,4.9,42,0.00,,---,0.00,VWS V14.00,2013-04-13 22:34:00,
2013-04-13 17:39:00,37.0,16.1,29.88,North,353,2.7,4.9,42,0.00,,---,0.00,VWS V14.00,2013-04-13 22:39:00,
2013-04-13 17:44:00,36.9,16.5,29.88,North,353,4.9,5.4,43,0.00,,---,0.00,VWS V14.00,2013-04-13 22:44:00,
2013-04-13 17:49:00,36.7,16.3,29.88,NNE,24,6.3,6.7,43,0.00,,---,0.00,VWS V14.00,2013-04-13 22:49:00,
2013-04-13 17:54:00,36.7,15.8,29.88,North,4,4.0,5.4,42,0.00,,---,0.00,VWS V14.00,2013-04-13 22:54:00,
2013-04-13 17:59:00,36.9,15.9,29.88,North,1,6.3,6.3,42,0.00,,---,0.00,VWS V14.00,2013-04-13 22:59:00,
2013-04-13 18:05:00,36.7,15.8,29.88,North,357,5.4,5.8,42,0.00,,---,0.00,VWS V14.00,2013-04-13 23:05:00,
2013-04-13 18:10:00,36.7,15.8,29.88,North,357,4.9,5.4,42,0.00,,---,0.00,VWS V14.00,2013-04-13 23:10:00,
2013-04-13 18:15:00,36.5,15.6,29.88,North,357,4.5,5.4,42,0.00,,---,0.00,VWS V14.00,2013-04-13 23:15:00,
2013-04-13 18:20:00,36.3,15.4,29.88,North,353,4.0,4.9,42,0.00,,---,0.00,VWS V14.00,2013-04-13 23:20:00,
2013-04-13 18:25:00,36.1,15.3,29.88,North,0,4.9,6.3,42,0.00,,---,0.00,VWS V14.00,2013-04-13 23:25:00,
2013-04-13 18:30:00,36.1,15.3,29.88,North,6,5.4,5.8,42,0.00,,---,0.00,VWS V14.00,2013-04-13 23:30:00,
2013-04-13 18:35:00,36.0,15.1,29.88,North,353,5.8,6.3,42,0.00,,---,0.00,VWS V14.00,2013-04-13 23:35:00,
2013-04-13 18:40:00,36.0,15.6,29.88,North,2,4.9,6.3,43,0.00,,---,0.00,VWS V14.00,2013-04-13 23:40:00,
2013-04-13 18:45:00,36.0,15.6,29.88,North,0,4.0,4.9,43,0.00,,---,0.00,VWS V14.00,2013-04-13 23:45:00,
2013-04-13 18:50:00,35.8,15.5,29.88,North,357,2.7,4.0,43,0.00,,---,0.00,VWS V14.00,2013-04-13 23:50:00,
2013-04-13 18:55:00,35.6,14.8,29.88,North,357,2.2,2.2,42,0.00,,---,0.00,VWS V14.00,2013-04-13 23:55:00,
2013-04-13 19:00:00,35.2,15.0,29.91,North,357,0.0,0.0,43,0.00,,---,0.00,VWS V14.00,2013-04-14 00:00:00,
2013-04-13 19:05:00,34.9,14.7,29.91,North,357,0.0,0.0,43,0.00,,---,0.00,VWS V14.00,2013-04-14 00:05:00,
2013-04-13 19:10:00,34.3,14.2,29.91,North,357,0.0,0.0,43,0.00,,---,0.00,VWS V14.00,2013-04-14 00:10:00,
2013-04-13 19:15:00,34.5,14.3,29.91,North,357,0.0,0.0,43,0.00,,---,0.00,VWS V14.00,2013-04-14 00:15:00,
2013-04-13 19:20:00,34.7,14.5,29.91,North,357,0.0,0.0,43,0.00,,---,0.00,VWS V14.00,2013-04-14 00:20:00,
2013-04-13 19:25:00,34.5,14.9,29.91,North,357,0.0,0.0,44,0.00,,---,0.00,VWS V14.00,2013-04-14 00:25:00,
2013-04-13 19:30:00,34.0,13.9,29.91,North,357,0.0,0.0,43,0.00,,---,0.00,VWS V14.00,2013-04-14 00:30:00,
2013-04-13 19:35:00,33.1,13.0,29.91,North,357,0.0,0.0,43,0.00,,---,0.00,VWS V14.00,2013-04-14 00:35:00,
2013-04-13 19:40:00,32.2,12.2,29.91,North,357,0.0,0.0,43,0.00,,---,0.00,VWS V14.00,2013-04-14 00:40:00,
2013-04-13 19:45:00,31.1,11.2,29.91,North,357,0.0,0.0,43,0.00,,---,0.00,VWS V14.00,2013-04-14 00:45:00,
2013-04-13 19:50:00,30.2,10.9,29.91,North,357,0.0,0.0,44,0.00,,---,0.00,VWS V14.00,2013-04-14 00:50:00,
2013-04-13 19:55:00,29.5,10.3,29.91,North,357,0.0,0.0,44,0.00,,---,0.00,VWS V14.00,2013-04-14 00:55:00,
2013-04-13 20:00:00,28.6,9.4,29.91,North,357,0.0,0.0,44,0.00,,---,0.00,VWS V14.00,2013-04-14 01:00:00,
2013-04-13 20:05:00,27.7,9.1,29.91,North,357,0.0,0.0,45,0.00,,---,0.00,VWS V14.00,2013-04-14 01:05:00,
2013-04-13 20:10:00,27.3,9.8,29.91,North,357,0.0,0.0,47,0.00,,---,0.00,VWS V14.00,2013-04-14 01:10:00,
2013-04-13 20:15:00,26.8,9.3,29.91,North,357,0.0,0.0,47,0.00,,---,0.00,VWS V14.00,2013-04-14 01:15:00,
2013-04-13 20:20:00,26.1,9.1,29.91,North,357,0.0,0.0,48,0.00,,---,0.00,VWS V14.00,2013-04-14 01:20:00,
2013-04-13 20:25:00,25.5,9.0,29.91,North,357,0.0,0.0,49,0.00,,---,0.00,VWS V14.00,2013-04-14 01:25:00,
2013-04-13 20:30:00,25.2,8.7,29.91,North,357,0.0,0.0,49,0.00,,---,0.00,VWS V14.00,2013-04-14 01:30:00,
2013-04-13 20:35:00,24.8,8.8,29.91,North,357,0.0,0.0,50,0.00,,---,0.00,VWS V14.00,2013-04-14 01:35:00,
2013-04-13 20:40:00,24.4,8.9,29.91,North,357,0.0,0.0,51,0.00,,---,0.00,VWS V14.00,2013-04-14 01:40:00,
2013-04-13 20:45:00,24.3,9.2,29.91,North,357,0.0,0.0,52,0.00,,---,0.00,VWS V14.00,2013-04-14 01:45:00,
2013-04-13 20:50:00,23.7,8.7,29.91,North,357,0.0,0.0,52,0.00,,---,0.00,VWS V14.00,2013-04-14 01:50:00,
2013-04-13 20:55:00,23.4,8.4,29.91,North,357,0.0,0.0,52,0.00,,---,0.00,VWS V14.00,2013-04-14 01:55:00,
2013-04-13 21:00:00,22.8,8.3,29.91,North,357,0.0,0.0,53,0.00,,---,0.00,VWS V14.00,2013-04-14 02:00:00,
2013-04-13 21:05:00,22.6,8.1,29.91,North,357,0.0,0.0,53,0.00,,---,0.00,VWS V14.00,2013-04-14 02:05:00,
2013-04-13 21:10:00,22.3,7.8,29.91,North,357,0.0,0.0,53,0.00,,---,0.00,VWS V14.00,2013-04-14 02:10:00,
2013-04-13 21:15:00,21.9,7.8,29.93,North,357,0.0,0.0,54,0.00,,---,0.00,VWS V14.00,2013-04-14 02:15:00,
2013-04-13 21:20:00,21.7,7.7,29.93,North,357,0.0,0.0,54,0.00,,---,0.00,VWS V14.00,2013-04-14 02:20:00,
2013-04-13 21:25:00,21.7,7.7,29.93,North,357,0.0,0.0,54,0.00,,---,0.00,VWS V14.00,2013-04-14 02:25:00,
2013-04-13 21:31:00,21.6,7.9,29.93,North,357,0.0,0.0,55,0.00,,---,0.00,VWS V14.00,2013-04-14 02:31:00,
2013-04-13 21:36:00,21.2,7.6,29.93,North,357,0.0,0.0,55,0.00,,---,0.00,VWS V14.00,2013-04-14 02:36:00,
2013-04-13 21:41:00,21.2,8.0,29.93,North,357,0.0,0.0,56,0.00,,---,0.00,VWS V14.00,2013-04-14 02:41:00,
2013-04-13 21:46:00,20.8,7.6,29.93,North,357,0.0,0.0,56,0.00,,---,0.00,VWS V14.00,2013-04-14 02:46:00,
2013-04-13 21:51:00,20.7,7.5,29.93,North,357,0.0,0.0,56,0.00,,---,0.00,VWS V14.00,2013-04-14 02:51:00,
2013-04-13 21:56:00,20.5,7.7,29.93,North,357,0.0,0.0,57,0.00,,---,0.00,VWS V14.00,2013-04-14 02:56:00,
2013-04-13 22:01:00,20.5,7.7,29.93,North,357,0.0,0.0,57,0.00,,---,0.00,VWS V14.00,2013-04-14 03:01:00,
2013-04-13 22:06:00,20.5,7.7,29.93,North,357,0.0,0.0,57,0.00,,---,0.00,VWS V14.00,2013-04-14 03:06:00,
2013-04-13 22:11:00,20.3,7.9,29.93,North,357,0.0,0.0,58,0.00,,---,0.00,VWS V14.00,2013-04-14 03:11:00,
2013-04-13 22:16:00,20.1,7.7,29.93,North,357,0.0,0.0,58,0.00,,---,0.00,VWS V14.00,2013-04-14 03:16:00,
2013-04-13 22:21:00,19.8,7.4,29.93,North,357,0.0,0.0,58,0.00,,---,0.00,VWS V14.00,2013-04-14 03:21:00,
2013-04-13 22:26:00,19.4,7.4,29.93,North,357,0.0,0.0,59,0.00,,---,0.00,VWS V14.00,2013-04-14 03:26:00,
2013-04-13 22:31:00,19.4,7.4,29.93,North,357,0.0,0.0,59,0.00,,---,0.00,VWS V14.00,2013-04-14 03:31:00,
2013-04-13 22:36:00,19.4,7.8,29.93,North,357,0.0,0.0,60,0.00,,---,0.00,VWS V14.00,2013-04-14 03:36:00,
2013-04-13 22:42:00,19.4,7.8,29.93,North,357,0.0,0.0,60,0.00,,---,0.00,VWS V14.00,2013-04-14 03:42:00,
2013-04-13 22:47:00,19.2,8.0,29.93,North,357,0.0,0.0,61,0.00,,---,0.00,VWS V14.00,2013-04-14 03:47:00,
2013-04-13 22:52:00,19.2,8.0,29.93,North,357,0.0,0.0,61,0.00,,---,0.00,VWS V14.00,2013-04-14 03:52:00,
2013-04-13 22:57:00,19.0,7.8,29.93,North,357,0.0,0.0,61,0.00,,---,0.00,VWS V14.00,2013-04-14 03:57:00,
2013-04-13 23:00:00,18.7,7.5,29.93,North,357,0.0,0.0,61,0.00,,---,0.00,VWS V14.00,2013-04-14 04:00:00,
2013-04-13 23:01:00,18.7,7.5,29.93,North,357,0.0,0.0,61,0.00,,---,0.00,VWS V14.00,2013-04-14 04:01:00,
2013-04-13 23:07:00,18.5,7.3,29.93,North,357,0.0,0.0,61,0.00,,---,0.00,VWS V14.00,2013-04-14 04:07:00,
2013-04-13 23:12:00,18.7,7.8,29.93,North,357,0.0,0.0,62,0.00,,---,0.00,VWS V14.00,2013-04-14 04:12:00,
2013-04-13 23:17:00,18.7,7.8,29.93,North,357,0.0,0.0,62,0.00,,---,0.00,VWS V14.00,2013-04-14 04:17:00,
2013-04-13 23:22:00,18.5,8.0,29.93,North,357,0.0,0.0,63,0.00,,---,0.00,VWS V14.00,2013-04-14 04:22:00,
2013-04-13 23:27:00,18.3,7.8,29.93,North,357,0.0,0.0,63,0.00,,---,0.00,VWS V14.00,2013-04-14 04:27:00,
2013-04-13 23:32:00,18.1,7.7,29.93,North,357,0.0,0.0,63,0.00,,---,0.00,VWS V14.00,2013-04-14 04:32:00,
2013-04-13 23:37:00,18.0,7.5,29.93,North,357,0.0,0.0,63,0.00,,---,0.00,VWS V14.00,2013-04-14 04:37:00,
2013-04-13 23:42:00,17.8,7.3,29.93,North,357,0.0,0.0,63,0.00,,---,0.00,VWS V14.00,2013-04-14 04:42:00,
2013-04-13 23:47:00,17.6,7.5,29.93,North,357,0.0,0.0,64,0.00,,---,0.00,VWS V14.00,2013-04-14 04:47:00,
2013-04-13 23:52:00,17.4,7.3,29.93,North,357,0.0,0.0,64,0.00,,---,0.00,VWS V14.00,2013-04-14 04:52:00,
2013-04-13 23:57:00,17.2,7.5,29.93,North,357,0.0,0.0,65,0.00,,---,0.00,VWS V14.00,2013-04-14 04:57:00,